createdAt,value
2022-10-11T00:02:18.155Z,100100.63
2022-10-11T00:04:48.776Z,100102.28
2022-10-11T00:07:18.865Z,100103.03
2022-10-11T00:09:48.265Z,100099.09
2022-10-11T00:12:17.248Z,100097.28
2022-10-11T00:14:45.572Z,100097.28
2022-10-11T00:17:17.502Z,100094.63
2022-10-11T00:20:00.078Z,100093.25
2022-10-11T00:22:42.902Z,100099.34
2022-10-11T00:25:27.184Z,100096.84
2022-10-11T00:28:09.027Z,100090.66
2022-10-11T00:30:50.944Z,100092.16
2022-10-11T00:33:35.952Z,100086.00
2022-10-11T00:36:19.235Z,100096.84
2022-10-11T00:39:02.254Z,100090.50
2022-10-11T00:41:42.807Z,100090.47
2022-10-11T00:44:26.975Z,100087.72
2022-10-11T00:47:10.745Z,100082.25
2022-10-11T00:49:54.474Z,100072.81
2022-10-11T00:52:36.306Z,100076.28
2022-10-11T00:55:30.120Z,100072.75
2022-10-11T00:58:14.444Z,100086.81
2022-10-11T01:00:55.577Z,100071.94
2022-10-11T01:03:36.438Z,100079.09
2022-10-11T01:06:20.226Z,100074.09
2022-10-11T01:09:04.978Z,100080.69
2022-10-11T01:11:45.922Z,100077.22
2022-10-11T01:14:51.303Z,100081.50
2022-10-11T01:17:34.226Z,100084.19
2022-10-11T01:20:19.545Z,100080.75
2022-10-11T01:23:26.590Z,100072.84
2022-10-11T01:26:23.656Z,100072.19
2022-10-11T01:29:08.640Z,100076.50
2022-10-11T01:31:51.392Z,100074.03
2022-10-11T01:34:34.176Z,100069.09
2022-10-11T01:37:18.852Z,100069.06
2022-10-11T01:40:03.542Z,100063.72
2022-10-11T01:42:46.417Z,100069.78
2022-10-11T01:45:30.296Z,100060.44
2022-10-11T01:48:14.206Z,100055.13
2022-10-11T01:50:56.367Z,100055.34
2022-10-11T01:53:50.027Z,100064.28
2022-10-11T01:56:35.455Z,100058.19
2022-10-11T01:59:21.392Z,100056.16
2022-10-11T02:02:05.398Z,100060.63
2022-10-11T02:04:50.861Z,100061.50
2022-10-11T02:07:32.864Z,100056.97
2022-10-11T02:10:16.940Z,100060.56
2022-10-11T02:13:10.081Z,100051.22
2022-10-11T02:15:54.646Z,100050.09
2022-10-11T02:18:36.812Z,100054.69
2022-10-11T02:21:20.246Z,100058.13
2022-10-11T02:24:05.031Z,100056.44
2022-10-11T02:26:48.468Z,100063.34
2022-10-11T02:29:46.286Z,100061.59
2022-10-11T02:32:30.288Z,100060.31
2022-10-11T02:35:14.799Z,100059.44
2022-10-11T02:37:57.793Z,100069.06
2022-10-11T02:40:49.359Z,100059.38
2022-10-11T02:43:31.827Z,100063.56
2022-10-11T02:46:20.165Z,100065.16
2022-10-11T02:49:09.650Z,100064.88
2022-10-11T02:51:51.289Z,100069.97
2022-10-11T02:54:35.720Z,100068.38
2022-10-11T02:57:19.191Z,100072.56
2022-10-11T03:00:03.442Z,100068.31
2022-10-11T03:02:48.215Z,100067.69
2022-10-11T03:05:37.494Z,100063.87
2022-10-11T03:08:29.683Z,100065.41
2022-10-11T03:11:18.023Z,100064.88
2022-10-11T03:14:03.414Z,100059.66
2022-10-11T03:16:43.281Z,100063.03
2022-10-11T03:19:26.251Z,100068.69
2022-10-11T03:22:07.868Z,100070.06
2022-10-11T03:24:51.014Z,100068.41
2022-10-11T03:27:32.579Z,100070.16
2022-10-11T03:30:18.395Z,100076.19
2022-10-11T03:33:12.635Z,100073.50
2022-10-11T03:35:55.510Z,100079.00
2022-10-11T03:38:38.589Z,100084.87
2022-10-11T03:41:21.199Z,100087.63
2022-10-11T03:44:04.820Z,100086.66
2022-10-11T03:46:47.312Z,100085.56
2022-10-11T03:49:30.851Z,100081.69
2022-10-11T03:52:19.589Z,100088.22
2022-10-11T03:55:16.570Z,100095.88
2022-10-11T03:57:58.453Z,100086.19
2022-10-11T04:00:40.545Z,100082.03
2022-10-11T04:03:25.951Z,100089.75
2022-10-11T04:06:11.937Z,100092.44
2022-10-11T04:08:54.179Z,100090.50
2022-10-11T04:11:55.112Z,100087.84
2022-10-11T04:14:42.400Z,100090.59
2022-10-11T04:17:23.883Z,100092.44
2022-10-11T04:20:07.725Z,100091.87
2022-10-11T04:22:48.610Z,100091.69
2022-10-11T04:25:30.983Z,100094.87
2022-10-11T04:28:14.072Z,100097.56
2022-10-11T04:30:55.423Z,100099.34
2022-10-11T04:33:36.854Z,100099.19
2022-10-11T04:36:18.728Z,100088.84
2022-10-11T04:39:02.294Z,100087.16
2022-10-11T04:41:44.849Z,100091.63
2022-10-11T04:44:29.815Z,100089.72
2022-10-11T04:47:23.676Z,100092.25
2022-10-11T04:50:06.157Z,100090.84
2022-10-11T04:52:48.101Z,100091.16
2022-10-11T04:55:30.940Z,100094.13
2022-10-11T04:58:10.530Z,100095.00
2022-10-11T05:00:40.697Z,100095.00
2022-10-11T05:03:25.991Z,100096.56
2022-10-11T05:06:10.743Z,100095.81
2022-10-11T05:08:59.674Z,100100.78
2022-10-11T05:11:42.924Z,100104.31
2022-10-11T05:14:26.764Z,100101.72
2022-10-11T05:17:08.560Z,100101.72
2022-10-11T05:19:50.868Z,100101.78
2022-10-11T05:22:32.871Z,100105.81
2022-10-11T05:25:16.066Z,100117.75
2022-10-11T05:27:56.697Z,100116.06
2022-10-11T05:30:43.199Z,100110.66
2022-10-11T05:33:25.601Z,100114.16
2022-10-11T05:36:15.189Z,100124.38
2022-10-11T05:39:04.472Z,100123.19
2022-10-11T05:41:53.517Z,100117.91
2022-10-11T05:44:39.076Z,100130.56
2022-10-11T05:47:20.723Z,100129.53
2022-10-11T05:50:06.042Z,100141.13
2022-10-11T05:52:51.531Z,100139.03
2022-10-11T06:00:57.203Z,100145.22
2022-10-11T06:03:40.158Z,100154.16
2022-10-11T06:06:21.986Z,100144.59
2022-10-11T06:09:05.728Z,100159.37
2022-10-11T06:12:06.175Z,100148.78
2022-10-11T06:14:56.855Z,100152.03
2022-10-11T06:17:48.966Z,100156.88
2022-10-11T06:20:32.051Z,100150.69
2022-10-11T06:23:35.265Z,100157.78
2022-10-11T06:26:30.143Z,100162.91
2022-10-11T06:29:25.749Z,100163.66
2022-10-11T06:32:15.199Z,100172.25
2022-10-11T06:35:13.022Z,100164.16
2022-10-11T06:38:00.537Z,100160.88
2022-10-11T06:41:07.044Z,100167.19
2022-10-11T06:44:17.275Z,100165.53
2022-10-11T06:47:11.544Z,100169.56
2022-10-11T06:50:12.830Z,100167.59
2022-10-11T06:53:14.203Z,100177.44
2022-10-11T06:56:21.261Z,100174.50
2022-10-11T06:59:30.570Z,100174.09
2022-10-11T07:02:24.251Z,100184.31
2022-10-11T07:05:19.528Z,100184.53
2022-10-11T07:08:11.472Z,100176.63
2022-10-11T07:10:53.965Z,100176.63
2022-10-11T07:13:49.225Z,100190.56
2022-10-11T07:16:36.669Z,100184.16
2022-10-11T07:19:38.058Z,100179.41
2022-10-11T07:23:38.279Z,100192.41
2022-10-11T07:37:03.395Z,100186.31
2022-10-11T07:40:00.322Z,100186.50
2022-10-11T07:43:01.296Z,100196.87
2022-10-11T07:45:55.717Z,100189.13
2022-10-11T07:48:44.965Z,100186.19
2022-10-11T07:51:44.334Z,100190.50
2022-10-11T07:54:43.458Z,100200.81
2022-10-11T07:57:34.910Z,100189.28
2022-10-11T08:00:37.298Z,100192.53
2022-10-11T08:03:37.668Z,100193.22
2022-10-11T08:06:48.671Z,100196.00
2022-10-11T08:09:49.431Z,100192.41
2022-10-11T08:12:32.458Z,100192.41
2022-10-11T08:15:27.397Z,100202.38
2022-10-11T08:18:28.759Z,100196.66
2022-10-11T08:21:34.636Z,100193.22
2022-10-11T08:24:40.601Z,100196.53
2022-10-11T08:28:01.837Z,100195.78
2022-10-11T08:31:42.885Z,100201.88
2022-10-11T08:46:07.961Z,100197.69
2022-10-11T08:52:47.391Z,100197.78
2022-10-11T08:55:41.767Z,100199.72
2022-10-11T08:58:46.317Z,100197.38
2022-10-11T09:02:02.851Z,100200.13
2022-10-11T09:05:21.801Z,100192.78
2022-10-11T09:08:41.570Z,100194.75
2022-10-11T09:15:24.768Z,100193.34
2022-10-11T09:18:28.601Z,100202.91
2022-10-11T09:29:32.426Z,100200.91
2022-10-11T09:33:05.757Z,100210.56
2022-10-11T09:36:27.692Z,100212.97
2022-10-11T09:43:02.116Z,100204.97
2022-10-11T09:51:45.134Z,100213.59
2022-10-11T13:13:44.483Z,100138.53
2022-10-11T13:21:23.780Z,100132.56
2022-10-11T13:28:51.904Z,100130.00
2022-10-11T14:02:30.859Z,100135.72
2022-10-11T14:13:55.676Z,100140.69
2022-10-11T14:25:04.006Z,100141.50
2022-10-11T14:28:14.103Z,100138.09
2022-10-11T14:31:23.731Z,100142.16
2022-10-11T14:34:58.937Z,100142.47
2022-10-11T14:38:25.075Z,100141.87
2022-10-11T14:45:21.780Z,100147.66
2022-10-11T14:48:42.950Z,100153.47
2022-10-11T14:58:15.885Z,100145.31
2022-10-11T15:01:14.798Z,100153.06
2022-10-11T15:03:59.446Z,100143.81
2022-10-11T15:06:59.595Z,100148.69
2022-10-11T15:10:06.740Z,100147.69
2022-10-11T15:12:59.846Z,100147.66
2022-10-11T15:15:46.211Z,100152.37
2022-10-11T15:18:32.977Z,100156.28
2022-10-11T15:21:13.211Z,100152.09
2022-10-11T15:26:50.746Z,100168.06
2022-10-11T15:29:24.803Z,100161.69
2022-10-11T15:32:06.640Z,100161.50
2022-10-11T15:34:38.278Z,100164.88
2022-10-11T15:37:18.733Z,100163.88
2022-10-11T15:40:03.252Z,100166.47
2022-10-11T15:42:44.474Z,100171.44
2022-10-11T15:45:18.746Z,100176.44
2022-10-11T15:48:08.138Z,100172.84
2022-10-11T15:50:41.504Z,100171.00
2022-10-11T15:53:34.591Z,100180.84
2022-10-11T15:56:19.157Z,100178.81
2022-10-11T15:58:58.851Z,100175.09
2022-10-11T16:01:28.964Z,100174.81
2022-10-11T16:04:04.851Z,100176.06
2022-10-11T16:06:51.228Z,100186.03
2022-10-11T16:09:34.058Z,100186.47
2022-10-11T16:12:13.669Z,100181.06
2022-10-11T16:14:51.154Z,100187.72
2022-10-11T16:20:15.880Z,100190.59
2022-10-11T16:22:45.199Z,100203.00
2022-10-11T16:25:23.308Z,100200.28
2022-10-11T16:27:59.400Z,100200.94
2022-10-11T16:30:39.233Z,100212.09
2022-10-11T16:33:11.696Z,100206.69
2022-10-11T16:35:41.983Z,100211.91
2022-10-11T16:38:11.304Z,100219.22
2022-10-11T16:40:42.363Z,100216.63
2022-10-11T16:43:11.560Z,100218.22
2022-10-11T16:45:49.623Z,100221.22
2022-10-11T16:48:22.520Z,100218.50
2022-10-11T16:50:52.782Z,100224.75
2022-10-11T16:53:31.788Z,100227.37
2022-10-11T16:56:10.446Z,100220.97
2022-10-11T16:58:39.680Z,100222.50
2022-10-11T17:01:19.110Z,100223.06
2022-10-11T17:03:52.189Z,100227.59
2022-10-11T17:06:22.280Z,100226.63
2022-10-11T17:08:54.572Z,100235.50
2022-10-11T17:11:24.782Z,100237.25
2022-10-11T17:13:57.675Z,100242.53
2022-10-11T17:16:28.535Z,100245.13
2022-10-11T17:18:58.861Z,100241.63
2022-10-11T17:21:32.800Z,100243.97
2022-10-11T17:24:06.157Z,100246.63
2022-10-11T17:26:38.147Z,100245.53
2022-10-11T17:29:07.630Z,100258.06
2022-10-11T17:31:49.213Z,100249.50
2022-10-11T17:34:30.866Z,100256.84
2022-10-11T17:37:07.840Z,100259.72
2022-10-11T17:39:37.748Z,100263.59
2022-10-11T17:42:11.048Z,100266.34
2022-10-11T17:44:42.791Z,100260.56
2022-10-11T17:47:22.513Z,100261.13
2022-10-11T17:49:52.292Z,100257.25
2022-10-11T17:52:22.926Z,100257.09
2022-10-11T17:54:55.019Z,100261.63
2022-10-11T17:57:24.379Z,100258.78
2022-10-11T17:59:56.668Z,100265.06
2022-10-11T18:02:27.614Z,100259.44
2022-10-11T18:05:00.452Z,100258.63
2022-10-11T18:07:37.735Z,100266.66
2022-10-11T18:10:09.983Z,100266.50
2022-10-11T18:12:41.807Z,100265.50
2022-10-11T18:15:20.749Z,100261.03
2022-10-11T18:18:03.348Z,100267.19
2022-10-11T18:20:34.950Z,100270.47
2022-10-11T18:23:17.817Z,100271.72
2022-10-11T18:25:58.635Z,100270.16
2022-10-11T18:28:33.824Z,100275.34
2022-10-11T18:31:14.356Z,100270.84
2022-10-11T18:34:00.005Z,100267.47
2022-10-11T18:36:39.213Z,100269.97
2022-10-11T18:39:10.208Z,100269.03
2022-10-11T18:41:44.935Z,100269.50
2022-10-11T18:44:21.689Z,100275.91
2022-10-11T18:46:51.990Z,100271.78
2022-10-11T18:49:25.115Z,100269.34
2022-10-11T18:52:06.567Z,100263.66
2022-10-11T18:54:59.826Z,100269.81
2022-10-11T18:57:30.337Z,100266.38
2022-10-11T19:00:11.709Z,100266.03
2022-10-11T19:03:19.580Z,100266.50
2022-10-11T19:06:03.713Z,100259.59
2022-10-11T19:08:36.467Z,100265.22
2022-10-11T19:11:13.362Z,100260.69
2022-10-11T19:13:43.116Z,100267.34
2022-10-11T19:16:12.913Z,100274.22
2022-10-11T19:18:52.677Z,100271.91
2022-10-11T19:21:29.497Z,100271.03
2022-10-11T19:24:00.701Z,100276.84
2022-10-11T19:26:36.810Z,100273.34
2022-10-11T19:29:07.279Z,100277.59
2022-10-11T19:31:41.325Z,100270.94
2022-10-11T19:34:13.684Z,100281.50
2022-10-11T19:36:43.378Z,100279.28
2022-10-11T19:39:13.682Z,100275.84
2022-10-11T19:41:43.567Z,100274.97
2022-10-11T19:44:16.225Z,100275.72
2022-10-11T19:46:51.387Z,100271.47
2022-10-11T19:49:27.064Z,100274.19
2022-10-11T19:52:06.481Z,100277.00
2022-10-11T19:54:42.180Z,100279.19
2022-10-11T19:57:11.141Z,100279.28
2022-10-11T19:59:44.026Z,100274.87
2022-10-11T20:02:13.758Z,100276.91
2022-10-11T20:04:52.316Z,100279.31
2022-10-11T20:07:31.500Z,100284.50
2022-10-11T20:10:12.003Z,100287.75
2022-10-11T20:13:02.927Z,100284.19
2022-10-11T20:15:40.236Z,100286.72
2022-10-11T20:18:17.699Z,100294.09
2022-10-11T20:20:55.774Z,100292.62
2022-10-11T20:23:48.160Z,100297.53
2022-10-11T20:30:33.507Z,100300.53
2022-10-11T20:33:02.888Z,100293.59
2022-10-11T20:35:33.829Z,100291.13
2022-10-11T20:38:04.267Z,100293.72
2022-10-11T20:40:41.039Z,100298.72
2022-10-11T20:43:10.530Z,100296.38
2022-10-11T20:45:43.572Z,100292.22
2022-10-11T20:48:22.587Z,100296.44
2022-10-11T20:50:53.330Z,100303.75
2022-10-11T20:54:11.563Z,100298.75
2022-10-11T20:57:40.527Z,100298.25
2022-10-11T21:00:31.438Z,100299.25
2022-10-11T21:03:08.915Z,100298.00
2022-10-11T21:05:38.820Z,100297.09
2022-10-11T21:08:16.355Z,100293.03
2022-10-11T21:11:14.013Z,100305.28
2022-10-11T21:13:43.413Z,100293.41
2022-10-11T21:16:18.892Z,100293.41
2022-10-11T21:19:26.870Z,100291.25
2022-10-11T21:22:04.157Z,100283.84
2022-10-11T21:24:33.567Z,100292.00
2022-10-11T21:27:02.175Z,100294.66
2022-10-11T21:29:31.724Z,100297.34
2022-10-11T21:32:04.491Z,100288.81
2022-10-11T21:34:35.578Z,100310.75
2022-10-11T21:37:04.955Z,100303.44
2022-10-11T21:39:34.086Z,100302.00
2022-10-11T21:42:11.103Z,100306.28
2022-10-11T21:44:44.353Z,100307.56
2022-10-11T21:47:13.906Z,100299.00
2022-10-11T21:49:52.802Z,100308.56
2022-10-11T21:52:22.276Z,100307.63
2022-10-11T21:54:55.071Z,100302.44
2022-10-11T21:57:24.699Z,100297.63
2022-10-11T22:00:02.929Z,100304.16
2022-10-11T22:02:52.005Z,100297.38
2022-10-11T22:05:26.137Z,100302.59
2022-10-11T22:07:59.522Z,100300.84
2022-10-11T22:10:28.710Z,100300.66
2022-10-11T22:12:58.968Z,100301.94
2022-10-11T22:15:28.181Z,100299.34
2022-10-11T22:18:00.480Z,100299.25
2022-10-11T22:20:35.099Z,100301.00
2022-10-11T22:23:04.969Z,100301.00
2022-10-11T22:25:35.463Z,100296.94
2022-10-11T22:28:09.009Z,100297.84
2022-10-11T22:30:38.092Z,100302.13
2022-10-11T22:33:14.269Z,100293.38
2022-10-11T22:35:46.932Z,100300.28
2022-10-11T22:38:16.224Z,100298.84
2022-10-11T22:40:50.647Z,100305.53
2022-10-11T22:43:20.240Z,100301.28
2022-10-11T22:45:52.117Z,100303.25
2022-10-11T22:48:21.839Z,100295.59
2022-10-11T22:50:56.248Z,100301.56
2022-10-11T22:53:25.328Z,100304.00
2022-10-11T22:55:54.432Z,100287.94
2022-10-11T22:58:23.127Z,100297.63
2022-10-11T23:00:54.175Z,100293.34
2022-10-11T23:03:23.541Z,100300.25
2022-10-11T23:05:58.667Z,100298.63
2022-10-11T23:08:27.908Z,100296.72
2022-10-11T23:11:03.446Z,100301.16
2022-10-11T23:13:34.930Z,100301.53
2022-10-11T23:16:07.114Z,100300.31
2022-10-11T23:18:40.531Z,100300.41
2022-10-11T23:21:11.130Z,100295.09
2022-10-11T23:23:41.421Z,100301.00
2022-10-11T23:26:12.265Z,100299.41
2022-10-11T23:28:46.117Z,100305.69
2022-10-11T23:31:16.928Z,100303.84
2022-10-11T23:33:46.997Z,100313.53
2022-10-11T23:36:17.614Z,100311.50
2022-10-11T23:38:49.067Z,100314.97
2022-10-11T23:41:17.621Z,100312.69
2022-10-11T23:43:49.628Z,100314.91
2022-10-11T23:46:18.371Z,100326.25
2022-10-11T23:48:50.757Z,100315.63
2022-10-11T23:51:21.242Z,100328.13
2022-10-11T23:53:52.374Z,100337.12
2022-10-11T23:56:21.440Z,100331.56
2022-10-11T23:58:55.188Z,100328.81
